Terminal Aerodrome Forecast
Issued by NWS Caribou, ME

Home | Current Version | Previous Version | Text Only | Print | Product List | Glossary On
Versions: 1 2 3 4 5 6 7 8 9 10 11 12 13 14 15 16 17
000
FTUS41 KCAR 282359 AAB
TAFCAR
TAF AMD
KCAR 282359Z 2900/2924 35009KT P6SM FEW250
     FM291300 29006KT P6SM FEW250
     FM291600 24010G17KT P6SM FEW250=

USA.gov is the U.S. government's official web portal to all federal, state and local government web resources and services.